Terminal Aerodrome Forecast
Issued by NWS

Current Version | Previous Version | Graphics & Text | Print | Product List | Glossary On
Versions: 1 2 3 4 5 6 7 8 9 10 11 12 13 14 15 16 17
000
FTUS41 KILN 211021 AAA
TAFLCK
TAF AMD
KLCK 211021Z 2110/2206 00000KT P6SM SCT040 BKN250
      TEMPO 2110/2112 3SM BR BKN002
     FM211400 11004KT P6SM BKN250
     FM211500 13005KT P6SM SCT040
     FM212300 12004KT P6SM FEW250=

USA.gov is the U.S. government's official web portal to all federal, state and local government web resources and services.